createdAt,value
2019-02-02T00:01:34.079Z,24.97
2019-02-02T00:04:05.162Z,22.07
2019-02-02T00:06:36.005Z,22.70
2019-02-02T00:09:09.129Z,23.73
2019-02-02T00:11:40.572Z,25.00
2019-02-02T00:14:11.396Z,26.40
2019-02-02T00:16:41.187Z,24.80
2019-02-02T00:19:12.206Z,21.03
2019-02-02T00:21:42.864Z,30.47
2019-02-02T00:24:14.481Z,26.33
2019-02-02T00:26:45.509Z,26.67
2019-02-02T00:29:16.373Z,20.90
2019-02-02T00:31:47.497Z,28.30
2019-02-02T00:34:19.129Z,26.40
2019-02-02T00:36:48.809Z,25.10
2019-02-02T00:39:20.081Z,29.97
2019-02-02T00:41:50.985Z,24.87
2019-02-02T00:44:22.447Z,24.30
2019-02-02T00:46:53.181Z,28.67
2019-02-02T00:49:23.913Z,25.53
2019-02-02T00:51:55.165Z,21.67
2019-02-02T00:54:26.141Z,28.60
2019-02-02T00:56:56.790Z,25.00
2019-02-02T00:59:26.885Z,23.60
2019-02-02T01:01:59.477Z,22.77
2019-02-02T01:04:30.105Z,26.47
2019-02-02T01:06:59.845Z,23.83
2019-02-02T01:09:30.891Z,25.20
2019-02-02T01:12:00.786Z,19.93
2019-02-02T01:14:30.933Z,30.70
2019-02-02T01:17:02.109Z,30.87
2019-02-02T01:19:36.276Z,33.00
2019-02-02T01:22:06.825Z,38.50
2019-02-02T01:24:37.173Z,29.00
2019-02-02T01:27:08.224Z,29.30
2019-02-02T01:29:38.490Z,28.63
2019-02-02T01:32:13.910Z,26.53
2019-02-02T01:34:44.069Z,20.63
2019-02-02T01:37:14.310Z,32.83
2019-02-02T01:39:48.395Z,30.40
2019-02-02T01:42:17.836Z,31.90
2019-02-02T01:44:48.963Z,31.37
2019-02-02T01:47:20.132Z,21.57
2019-02-02T01:49:50.869Z,36.20
2019-02-02T01:52:21.861Z,32.47
2019-02-02T01:54:53.101Z,25.27
2019-02-02T01:57:23.868Z,36.10
2019-02-02T01:59:54.018Z,33.40
2019-02-02T02:02:29.930Z,31.33
2019-02-02T02:05:00.305Z,30.77
2019-02-02T02:07:31.197Z,29.30
2019-02-02T02:10:01.827Z,21.63
2019-02-02T02:12:32.749Z,29.33
2019-02-02T02:15:03.352Z,28.03
2019-02-02T02:17:33.382Z,31.47
2019-02-02T02:20:06.762Z,28.37
2019-02-02T02:22:41.225Z,27.30
2019-02-02T02:25:17.066Z,33.97
2019-02-02T02:27:48.054Z,31.30
2019-02-02T02:30:25.629Z,28.33
2019-02-02T02:32:56.463Z,27.63
2019-02-02T02:35:26.208Z,23.97
2019-02-02T02:38:00.006Z,30.97
2019-02-02T02:40:29.874Z,29.93
2019-02-02T02:43:00.814Z,29.10
2019-02-02T02:45:31.625Z,27.27
2019-02-02T02:48:01.684Z,23.63
2019-02-02T02:50:31.497Z,25.00
2019-02-02T02:53:02.506Z,28.03
2019-02-02T02:55:34.100Z,25.07
2019-02-02T02:58:06.445Z,26.67
2019-02-02T03:00:37.425Z,26.43
2019-02-02T03:03:10.218Z,29.50
2019-02-02T03:05:41.318Z,24.03
2019-02-02T03:08:11.742Z,26.30
2019-02-02T03:10:42.897Z,20.67
2019-02-02T03:13:13.178Z,27.27
2019-02-02T03:15:44.309Z,26.07
2019-02-02T03:18:15.142Z,24.63
2019-02-02T03:20:45.895Z,23.83
2019-02-02T03:23:16.610Z,20.40
2019-02-02T03:25:48.910Z,25.73
2019-02-02T03:28:19.921Z,25.90
2019-02-02T03:30:52.430Z,29.93
2019-02-02T03:33:23.199Z,26.90
2019-02-02T03:35:53.006Z,27.70
2019-02-02T03:38:22.777Z,26.97
2019-02-02T03:40:52.867Z,26.27
2019-02-02T03:43:22.765Z,25.87
2019-02-02T03:45:52.648Z,25.00
2019-02-02T03:48:23.350Z,21.27
2019-02-02T03:50:53.426Z,27.03
2019-02-02T03:53:23.585Z,28.97
2019-02-02T03:55:53.885Z,33.07
2019-02-02T03:58:25.099Z,30.93
2019-02-02T04:00:57.064Z,25.27
2019-02-02T04:03:30.203Z,29.90
2019-02-02T04:06:04.162Z,28.30
2019-02-02T04:08:35.929Z,32.93
2019-02-02T04:11:07.657Z,39.63
2019-02-02T04:13:38.301Z,26.67
2019-02-02T04:16:08.451Z,33.73
2019-02-02T04:18:40.213Z,32.07
2019-02-02T04:21:11.353Z,27.87
2019-02-02T04:23:41.548Z,28.67
2019-02-02T04:26:11.482Z,28.63
2019-02-02T04:28:40.725Z,35.57
2019-02-02T04:31:11.774Z,34.03
2019-02-02T04:33:42.786Z,34.50
2019-02-02T04:36:14.532Z,27.10
2019-02-02T04:38:44.745Z,34.83
2019-02-02T04:41:16.629Z,33.33
2019-02-02T04:43:47.714Z,29.97
2019-02-02T04:46:18.957Z,35.57
2019-02-02T04:48:50.370Z,33.93
2019-02-02T04:51:21.546Z,32.03
2019-02-02T04:53:53.522Z,26.47
2019-02-02T04:56:24.353Z,31.87
2019-02-02T04:58:55.485Z,27.40
2019-02-02T05:01:25.378Z,36.77
2019-02-02T05:03:56.033Z,36.60
2019-02-02T05:06:28.373Z,27.80
2019-02-02T05:08:58.602Z,32.30
2019-02-02T05:11:31.962Z,32.50
2019-02-02T05:14:02.834Z,27.37
2019-02-02T05:16:32.929Z,33.13
2019-02-02T05:19:04.049Z,36.80
2019-02-02T05:21:33.963Z,29.83
2019-02-02T05:24:03.972Z,28.20
2019-02-02T05:26:34.226Z,36.80
2019-02-02T05:29:06.917Z,35.63
2019-02-02T05:31:38.205Z,34.57
2019-02-02T05:34:10.240Z,38.17
2019-02-02T05:36:44.042Z,35.23
2019-02-02T05:39:14.869Z,35.33
2019-02-02T05:41:45.585Z,33.63
2019-02-02T05:44:16.786Z,36.83
2019-02-02T05:46:46.800Z,26.77
2019-02-02T05:49:17.512Z,35.40
2019-02-02T05:51:49.807Z,32.83
2019-02-02T05:54:19.627Z,34.07
2019-02-02T05:56:50.393Z,27.07
2019-02-02T05:59:21.401Z,34.00
2019-02-02T06:01:51.297Z,38.57
2019-02-02T06:04:21.079Z,33.17
2019-02-02T06:06:51.729Z,35.20
2019-02-02T06:09:22.914Z,38.83
2019-02-02T06:11:53.865Z,38.40
2019-02-02T06:14:23.982Z,29.87
2019-02-02T06:16:56.995Z,40.10
2019-02-02T06:19:29.560Z,39.37
2019-02-02T06:22:01.068Z,43.87
2019-02-02T06:24:31.020Z,36.33
2019-02-02T06:27:00.906Z,32.97
2019-02-02T06:29:30.989Z,38.13
2019-02-02T06:32:11.606Z,37.63
2019-02-02T06:34:33.594Z,39.27
2019-02-02T06:37:05.022Z,37.83
2019-02-02T06:39:34.913Z,36.80
2019-02-02T06:42:05.761Z,29.47
2019-02-02T06:44:38.560Z,36.27
2019-02-02T06:47:09.800Z,37.20
2019-02-02T06:49:42.295Z,38.93
2019-02-02T06:52:13.926Z,31.53
2019-02-02T06:54:44.793Z,39.20
2019-02-02T06:57:14.949Z,43.10
2019-02-02T06:59:45.092Z,33.33
2019-02-02T07:02:19.028Z,40.13
2019-02-02T07:04:49.994Z,43.03
2019-02-02T07:07:20.040Z,42.97
2019-02-02T07:09:50.883Z,35.70
2019-02-02T07:12:21.865Z,40.23
2019-02-02T07:14:52.072Z,46.03
2019-02-02T07:17:21.963Z,45.53
2019-02-02T07:19:52.055Z,43.00
2019-02-02T07:22:23.057Z,43.70
2019-02-02T07:24:52.978Z,40.17
2019-02-02T07:27:23.613Z,41.57
2019-02-02T07:29:53.670Z,39.93
2019-02-02T07:32:24.715Z,40.40
2019-02-02T07:34:54.896Z,40.73
2019-02-02T07:37:26.026Z,38.37
2019-02-02T07:39:56.774Z,43.73
2019-02-02T07:42:26.846Z,44.43
2019-02-02T07:44:57.677Z,38.67
2019-02-02T07:47:28.513Z,45.47
2019-02-02T07:49:59.942Z,44.77
2019-02-02T07:52:32.837Z,42.13
2019-02-02T07:55:02.976Z,39.23
2019-02-02T07:57:33.245Z,37.27
2019-02-02T08:00:04.301Z,34.43
2019-02-02T08:02:37.219Z,41.27
2019-02-02T08:05:10.342Z,42.10
2019-02-02T08:07:41.544Z,38.73
2019-02-02T08:10:14.601Z,45.17
2019-02-02T08:12:45.874Z,45.03
2019-02-02T08:15:25.024Z,43.13
2019-02-02T08:17:55.323Z,37.43
2019-02-02T08:20:28.170Z,42.07
2019-02-02T08:22:58.641Z,46.87
2019-02-02T08:25:28.418Z,43.93
2019-02-02T08:27:59.121Z,37.53
2019-02-02T08:30:29.997Z,46.87
2019-02-02T08:33:00.133Z,45.13
2019-02-02T08:35:32.130Z,45.13
2019-02-02T08:38:04.166Z,48.50
2019-02-02T08:40:35.873Z,49.17
2019-02-02T08:43:06.042Z,50.17
2019-02-02T08:45:37.165Z,39.70
2019-02-02T08:48:07.910Z,47.50
2019-02-02T08:50:38.167Z,51.27
2019-02-02T08:53:10.265Z,50.03
2019-02-02T08:55:41.378Z,51.07
2019-02-02T08:58:13.513Z,48.07
2019-02-02T09:00:45.506Z,46.03
2019-02-02T09:03:15.349Z,56.30
2019-02-02T09:05:50.796Z,55.17
2019-02-02T09:08:22.129Z,48.90
2019-02-02T09:11:10.997Z,40.40
2019-02-02T09:14:01.913Z,47.87
2019-02-02T09:16:50.698Z,51.47
2019-02-02T09:19:39.684Z,49.27
2019-02-02T09:22:28.795Z,50.10
2019-02-02T09:25:17.345Z,41.77
2019-02-02T09:28:06.165Z,46.33
2019-02-02T09:30:55.023Z,46.07
2019-02-02T09:33:44.147Z,47.70
2019-02-02T09:36:33.682Z,46.67
2019-02-02T09:39:22.118Z,38.60
2019-02-02T09:42:11.456Z,49.07
2019-02-02T09:45:02.505Z,51.53
2019-02-02T09:47:53.589Z,46.60
2019-02-02T09:50:42.009Z,49.10
2019-02-02T09:53:31.098Z,49.70
2019-02-02T09:56:19.710Z,52.93
2019-02-02T09:59:09.686Z,48.97
2019-02-02T10:01:58.754Z,48.57
2019-02-02T10:04:46.701Z,48.33
2019-02-02T10:07:35.953Z,48.13
2019-02-02T10:10:26.443Z,45.53
2019-02-02T11:21:20.354Z,53.60
2019-02-02T11:24:09.142Z,51.10
2019-02-02T11:26:58.218Z,53.53
2019-02-02T11:29:48.668Z,53.60
2019-02-02T11:32:38.501Z,48.70
2019-02-02T11:35:29.299Z,50.40
2019-02-02T11:38:17.542Z,48.77
2019-02-02T11:41:05.292Z,51.93
2019-02-02T11:43:53.741Z,54.63
2019-02-02T11:46:42.808Z,48.13
2019-02-02T11:49:31.457Z,51.13
2019-02-02T11:52:23.228Z,53.83
2019-02-02T11:55:18.890Z,50.60
2019-02-02T11:58:07.019Z,53.00
2019-02-02T12:00:56.310Z,54.13
2019-02-02T12:03:45.337Z,52.13
2019-02-02T12:06:33.377Z,57.03
2019-02-02T12:09:21.374Z,54.83
2019-02-02T12:12:09.712Z,50.57
2019-02-02T12:14:57.951Z,54.27
2019-02-02T12:17:28.098Z,52.63
2019-02-02T12:20:18.373Z,55.03
2019-02-02T12:22:49.101Z,54.73
2019-02-02T12:25:19.208Z,56.07
2019-02-02T12:27:49.106Z,58.67
2019-02-02T12:30:28.485Z,53.97
2019-02-02T12:33:02.759Z,52.33
2019-02-02T12:35:30.567Z,55.43
2019-02-02T12:38:00.775Z,53.57
2019-02-02T12:40:31.979Z,57.47
2019-02-02T12:43:02.817Z,59.50
2019-02-02T12:45:46.990Z,59.97
2019-02-02T12:48:17.195Z,56.30
2019-02-02T12:50:47.130Z,59.73
2019-02-02T12:53:16.754Z,58.93
2019-02-02T12:55:47.499Z,69.60
2019-02-02T12:58:18.229Z,66.30
2019-02-02T13:00:50.155Z,66.27
2019-02-02T13:03:20.361Z,63.90
2019-02-02T13:05:51.590Z,64.13
2019-02-02T13:08:23.982Z,53.93
2019-02-02T13:10:54.817Z,69.27
2019-02-02T13:13:25.839Z,66.20
2019-02-02T13:15:55.958Z,67.03
2019-02-02T13:18:28.618Z,66.47
2019-02-02T13:20:58.433Z,74.90
2019-02-02T13:23:28.233Z,71.57
2019-02-02T13:26:05.505Z,72.20
2019-02-02T13:28:31.522Z,65.90
2019-02-02T13:31:02.644Z,67.10
2019-02-02T13:33:32.345Z,70.63
2019-02-02T13:36:03.495Z,67.30
2019-02-02T13:38:36.306Z,65.93
2019-02-02T13:41:07.559Z,64.50
2019-02-02T13:43:40.586Z,66.47
2019-02-02T13:46:10.721Z,67.70
2019-02-02T13:48:41.857Z,68.43
2019-02-02T13:51:12.997Z,56.83
2019-02-02T13:53:44.425Z,75.23
2019-02-02T13:56:14.653Z,68.57
2019-02-02T13:58:46.666Z,70.13
2019-02-02T14:01:17.495Z,77.80
2019-02-02T14:03:48.108Z,72.23
2019-02-02T14:06:18.159Z,71.63
2019-02-02T14:08:48.013Z,78.53
2019-02-02T14:11:18.993Z,66.57
2019-02-02T14:13:50.665Z,73.37
2019-02-02T14:16:23.737Z,77.27
2019-02-02T14:18:54.572Z,76.60
2019-02-02T14:21:25.419Z,79.63
2019-02-02T14:23:57.196Z,71.33
2019-02-02T14:26:27.157Z,56.43
2019-02-02T14:28:58.219Z,74.10
2019-02-02T14:31:29.132Z,75.13
2019-02-02T14:33:58.921Z,68.40
2019-02-02T14:36:30.548Z,74.63
2019-02-02T14:39:01.525Z,76.13
2019-02-02T14:41:33.637Z,68.63
2019-02-02T14:44:04.411Z,73.90
2019-02-02T14:46:34.165Z,75.83
2019-02-02T14:49:05.789Z,74.60
2019-02-02T14:51:36.729Z,74.97
2019-02-02T14:54:07.465Z,75.57
2019-02-02T14:56:38.184Z,64.20
2019-02-02T14:59:11.005Z,84.17
2019-02-02T15:01:42.036Z,79.97
2019-02-02T15:04:12.744Z,80.23
2019-02-02T15:06:43.791Z,81.23
2019-02-02T15:09:15.839Z,79.97
2019-02-02T15:11:48.259Z,79.20
2019-02-02T15:14:21.167Z,76.13
2019-02-02T15:16:53.091Z,81.17
2019-02-02T15:19:23.738Z,63.77
2019-02-02T15:21:52.952Z,80.93
2019-02-02T15:24:23.605Z,78.10
2019-02-02T15:26:54.364Z,77.63
2019-02-02T15:29:25.392Z,86.20
2019-02-02T15:31:55.209Z,84.67
2019-02-02T15:34:24.968Z,85.40
2019-02-02T15:36:56.317Z,83.47
2019-02-02T15:39:26.558Z,81.97
2019-02-02T15:41:57.631Z,77.63
2019-02-02T15:44:28.514Z,68.93
2019-02-02T15:46:58.326Z,84.30
2019-02-02T15:49:28.064Z,88.93
2019-02-02T15:51:58.082Z,91.30
2019-02-02T15:54:31.114Z,95.87
2019-02-02T15:57:01.758Z,90.17
2019-02-02T15:59:33.517Z,86.37
2019-02-02T16:02:03.262Z,72.00
2019-02-02T16:04:33.438Z,89.30
2019-02-02T16:07:05.213Z,87.03
2019-02-02T16:09:35.112Z,83.17
2019-02-02T16:12:05.349Z,84.43
2019-02-02T16:14:35.180Z,82.00
2019-02-02T16:17:07.054Z,95.30
2019-02-02T16:19:42.073Z,87.77
2019-02-02T16:22:11.835Z,89.40
2019-02-02T16:24:41.902Z,70.47
2019-02-02T16:27:12.903Z,91.03
2019-02-02T16:29:44.013Z,85.27
2019-02-02T16:32:14.797Z,95.60
2019-02-02T16:34:45.514Z,94.10
2019-02-02T16:37:18.443Z,96.07
2019-02-02T16:39:48.329Z,89.60
2019-02-02T16:42:20.093Z,84.40
2019-02-02T16:44:49.341Z,94.60
2019-02-02T16:47:20.986Z,88.80
2019-02-02T16:49:51.010Z,88.13
2019-02-02T16:52:22.930Z,90.20
2019-02-02T16:54:53.067Z,91.00
2019-02-02T16:57:22.933Z,90.83
2019-02-02T16:59:53.014Z,84.60
2019-02-02T17:02:25.363Z,93.07
2019-02-02T17:04:56.063Z,74.90
2019-02-02T17:07:26.218Z,91.83
2019-02-02T17:09:56.970Z,90.33
2019-02-02T17:12:26.728Z,89.30
2019-02-02T17:14:56.415Z,91.23
2019-02-02T17:17:27.343Z,90.83
2019-02-02T17:19:58.118Z,92.67
2019-02-02T17:22:28.047Z,91.07
2019-02-02T17:24:58.781Z,94.20
2019-02-02T17:27:28.039Z,75.03
2019-02-02T17:30:01.480Z,93.47
2019-02-02T17:32:31.188Z,104.40
2019-02-02T17:35:01.914Z,92.40
2019-02-02T17:37:34.441Z,95.53
2019-02-02T17:40:05.059Z,96.53
2019-02-02T17:42:35.798Z,100.77
2019-02-02T17:45:08.397Z,101.90
2019-02-02T17:47:40.359Z,107.30
2019-02-02T17:50:12.625Z,102.30
2019-02-02T17:52:43.342Z,79.77
2019-02-02T17:55:14.385Z,93.90
2019-02-02T17:57:45.415Z,100.83
2019-02-02T18:00:18.314Z,100.37
2019-02-02T18:02:48.216Z,104.83
2019-02-02T18:05:19.179Z,93.30
2019-02-02T18:07:51.826Z,92.87
2019-02-02T18:10:22.025Z,97.03
2019-02-02T18:12:52.030Z,96.77
2019-02-02T18:15:24.545Z,105.17
2019-02-02T18:17:57.218Z,75.23
2019-02-02T18:20:27.013Z,94.60
2019-02-02T18:22:57.649Z,81.30
2019-02-02T18:25:28.281Z,98.23
2019-02-02T18:27:59.841Z,97.50
2019-02-02T18:30:30.949Z,101.87
2019-02-02T18:33:01.790Z,102.70
2019-02-02T18:35:32.457Z,97.07
2019-02-02T18:38:04.882Z,75.57
2019-02-02T18:40:39.980Z,93.70
2019-02-02T18:43:08.801Z,89.23
2019-02-02T18:45:39.357Z,92.13
2019-02-02T18:48:12.774Z,93.63
2019-02-02T18:50:43.421Z,102.57
2019-02-02T18:53:16.822Z,99.67
2019-02-02T18:55:49.229Z,90.00
2019-02-02T18:58:18.965Z,93.30
2019-02-02T19:00:48.746Z,97.53
2019-02-02T19:03:19.345Z,94.23
2019-02-02T19:05:49.985Z,76.77
2019-02-02T19:08:19.764Z,94.93
2019-02-02T19:10:49.534Z,102.30
2019-02-02T19:13:20.959Z,92.23
2019-02-02T19:15:52.013Z,96.33
2019-02-02T19:18:22.670Z,86.90
2019-02-02T19:20:53.240Z,96.17
2019-02-02T19:23:25.688Z,86.43
2019-02-02T19:25:56.450Z,86.90
2019-02-02T19:28:39.125Z,99.53
2019-02-02T19:31:00.750Z,68.50
2019-02-02T19:33:31.425Z,92.63
2019-02-02T19:36:02.074Z,88.00
2019-02-02T19:38:34.036Z,85.77
2019-02-02T19:41:05.246Z,83.70
2019-02-02T19:43:36.090Z,90.07
2019-02-02T19:46:07.514Z,86.93
2019-02-02T19:48:38.384Z,69.73
2019-02-02T19:51:08.167Z,85.50
2019-02-02T19:53:38.811Z,82.57
2019-02-02T19:56:09.678Z,66.87
2019-02-02T19:58:41.937Z,82.60
2019-02-02T20:01:14.335Z,73.00
2019-02-02T20:03:44.854Z,73.33
2019-02-02T20:06:16.050Z,77.20
2019-02-02T20:08:46.711Z,78.23
2019-02-02T20:11:16.713Z,74.73
2019-02-02T20:13:46.634Z,73.17
2019-02-02T20:16:16.368Z,72.57
2019-02-02T20:18:50.062Z,60.93
2019-02-02T20:21:20.098Z,78.10
2019-02-02T20:23:53.777Z,74.87
2019-02-02T20:26:25.556Z,63.37
2019-02-02T20:28:56.223Z,72.57
2019-02-02T20:31:28.970Z,77.23
2019-02-02T20:34:00.765Z,85.43
2019-02-02T20:36:31.524Z,76.50
2019-02-02T20:39:02.234Z,78.83
2019-02-02T20:41:35.550Z,73.17
2019-02-02T20:44:06.494Z,76.97
2019-02-02T20:46:37.142Z,73.60
2019-02-02T20:49:08.005Z,64.07
2019-02-02T20:51:40.565Z,80.40
2019-02-02T20:54:10.473Z,85.63
2019-02-02T20:57:00.594Z,82.87
2019-02-02T20:59:32.005Z,85.03
2019-02-02T21:02:01.957Z,80.17
2019-02-02T21:04:35.310Z,89.37
2019-02-02T21:07:06.274Z,63.37
2019-02-02T21:09:40.036Z,79.70
2019-02-02T21:12:14.126Z,81.40
2019-02-02T21:14:45.994Z,86.43
2019-02-02T21:17:17.092Z,82.97
2019-02-02T21:19:48.866Z,75.47
2019-02-02T21:22:18.633Z,65.80
2019-02-02T21:24:50.410Z,83.40
2019-02-02T21:27:22.293Z,83.67
2019-02-02T21:29:53.487Z,83.47
2019-02-02T21:32:24.210Z,77.67
2019-02-02T21:34:56.094Z,81.90
2019-02-02T21:37:29.000Z,79.17
2019-02-02T21:40:01.085Z,61.37
2019-02-02T21:42:34.099Z,74.50
2019-02-02T21:45:08.069Z,76.23
2019-02-02T21:47:38.702Z,74.77
2019-02-02T21:50:14.007Z,80.50
2019-02-02T21:52:45.230Z,81.57
2019-02-02T21:55:21.726Z,77.77
2019-02-02T21:57:52.931Z,82.60
2019-02-02T22:00:26.746Z,83.30
2019-02-02T22:02:56.661Z,82.13
2019-02-02T22:05:27.808Z,80.50
2019-02-02T22:07:58.083Z,77.93
2019-02-02T22:10:29.207Z,83.30
2019-02-02T22:13:00.898Z,84.30
2019-02-02T22:15:32.378Z,82.50
2019-02-02T22:18:02.441Z,84.77
2019-02-02T22:20:35.154Z,86.37
2019-02-02T22:23:06.181Z,72.83
2019-02-02T22:25:38.782Z,99.40
2019-02-02T22:28:09.614Z,96.23
2019-02-02T22:30:39.775Z,96.70
2019-02-02T22:33:10.917Z,97.63
2019-02-02T22:35:43.211Z,106.10
2019-02-02T22:38:13.980Z,102.43
2019-02-02T22:40:43.713Z,106.70
2019-02-02T22:43:16.145Z,103.67
2019-02-02T22:45:46.714Z,108.60
2019-02-02T22:48:19.343Z,107.63
2019-02-02T22:50:50.061Z,104.60
2019-02-02T22:53:19.822Z,106.03
2019-02-02T22:55:50.552Z,89.40
2019-02-02T22:58:23.350Z,101.37
2019-02-02T23:01:02.523Z,95.13
2019-02-02T23:03:37.830Z,99.97
2019-02-02T23:06:18.887Z,104.40
2019-02-02T23:09:08.501Z,100.47
2019-02-02T23:11:40.789Z,98.33
2019-02-02T23:14:23.362Z,97.03
2019-02-02T23:16:54.034Z,74.63
2019-02-02T23:19:24.787Z,86.97
2019-02-02T23:21:55.910Z,92.93
2019-02-02T23:24:25.788Z,98.80
2019-02-02T23:26:56.523Z,92.10
2019-02-02T23:29:26.680Z,95.00
2019-02-02T23:31:57.404Z,94.60
2019-02-02T23:34:28.342Z,72.60
2019-02-02T23:36:59.570Z,93.33
2019-02-02T23:39:31.686Z,96.03
2019-02-02T23:42:01.756Z,88.90
2019-02-02T23:44:31.528Z,96.47
2019-02-02T23:47:02.248Z,98.60
2019-02-02T23:49:32.090Z,74.93
2019-02-02T23:52:05.676Z,97.10
2019-02-02T23:54:36.723Z,89.27
2019-02-02T23:57:06.588Z,93.47
2019-02-02T23:59:36.673Z,90.17
